sensor_id;sensor_type;location;lat;lon;timestamp;P1;durP1;ratioP1;P2;durP2;ratioP2
74788;SDS011;63313;48.258;12.518;2023-01-15T00:03:57;5.2299999999999995;;;2.8499999999999996;;
74788;SDS011;63313;48.258;12.518;2023-01-15T00:09:24;4.7299999999999995;;;2.7300000000000004;;
74788;SDS011;63313;48.258;12.518;2023-01-15T00:14:51;6.459999999999999;;;3.0900000000000003;;
74788;SDS011;63313;48.258;12.518;2023-01-15T00:20:18;6.209999999999999;;;2.73;;
74788;SDS011;63313;48.258;12.518;2023-01-15T00:25:46;6.220000000000001;;;3.1399999999999997;;
74788;SDS011;63313;48.258;12.518;2023-01-15T00:31:13;5.41;;;2.93;;
74788;SDS011;63313;48.258;12.518;2023-01-15T00:36:40;5.9;;;2.2800000000000002;;
74788;SDS011;63313;48.258;12.518;2023-01-15T00:42:07;5.92;;;2.51;;
74788;SDS011;63313;48.258;12.518;2023-01-15T00:47:34;4.119999999999999;;;2.4899999999999998;;
74788;SDS011;63313;48.258;12.518;2023-01-15T00:53:01;2.65;;;2.2;;
74788;SDS011;63313;48.258;12.518;2023-01-15T00:58:29;3.7800000000000002;;;2.25;;
74788;SDS011;63313;48.258;12.518;2023-01-15T01:03:56;3.55;;;2.34;;
74788;SDS011;63313;48.258;12.518;2023-01-15T01:09:23;4.3;;;1.8699999999999999;;
74788;SDS011;63313;48.258;12.518;2023-01-15T01:14:50;3.04;;;1.65;;
74788;SDS011;63313;48.258;12.518;2023-01-15T01:20:17;1.9400000000000002;;;1.45;;
74788;SDS011;63313;48.258;12.518;2023-01-15T01:25:44;1.4600000000000002;;;1.3299999999999998;;
74788;SDS011;63313;48.258;12.518;2023-01-15T01:31:11;3.3400000000000007;;;1.89;;
74788;SDS011;63313;48.258;12.518;2023-01-15T01:36:39;1.26;;;1.1700000000000002;;
74788;SDS011;63313;48.258;12.518;2023-01-15T01:42:09;3.2700000000000005;;;1.64;;
74788;SDS011;63313;48.258;12.518;2023-01-15T01:47:37;2.5;;;1.95;;
74788;SDS011;63313;48.258;12.518;2023-01-15T01:53:05;2.62;;;1.7900000000000003;;
74788;SDS011;63313;48.258;12.518;2023-01-15T01:58:33;4.93;;;2.7299999999999995;;
74788;SDS011;63313;48.258;12.518;2023-01-15T02:04:00;3.78;;;2.4899999999999998;;
74788;SDS011;63313;48.258;12.518;2023-01-15T02:09:28;4.6899999999999995;;;2.41;;
74788;SDS011;63313;48.258;12.518;2023-01-15T02:14:56;7.7200000000000015;;;2.7299999999999995;;
74788;SDS011;63313;48.258;12.518;2023-01-15T02:20:27;5.17;;;2.87;;
74788;SDS011;63313;48.258;12.518;2023-01-15T02:26:01;3.04;;;2.28;;
74788;SDS011;63313;48.258;12.518;2023-01-15T02:31:32;3.8;;;2.04;;
74788;SDS011;63313;48.258;12.518;2023-01-15T02:37:00;1.7100000000000002;;;1.5399999999999998;;
74788;SDS011;63313;48.258;12.518;2023-01-15T02:42:29;5.5600000000000005;;;1.9400000000000002;;
74788;SDS011;63313;48.258;12.518;2023-01-15T02:47:58;1.9599999999999997;;;1.69;;
74788;SDS011;63313;48.258;12.518;2023-01-15T02:53:28;5.61;;;2.0300000000000002;;
74788;SDS011;63313;48.258;12.518;2023-01-15T02:58:56;2.74;;;1.67;;
74788;SDS011;63313;48.258;12.518;2023-01-15T03:04:26;1.56;;;1.2900000000000003;;
74788;SDS011;63313;48.258;12.518;2023-01-15T03:09:56;1.3399999999999999;;;1.1700000000000002;;
74788;SDS011;63313;48.258;12.518;2023-01-15T03:15:23;1.9;;;1.32;;
74788;SDS011;63313;48.258;12.518;2023-01-15T03:20:51;1.53;;;1.4300000000000002;;
74788;SDS011;63313;48.258;12.518;2023-01-15T03:26:20;3.17;;;1.59;;
74788;SDS011;63313;48.258;12.518;2023-01-15T03:31:47;3.97;;;1.4300000000000002;;
74788;SDS011;63313;48.258;12.518;2023-01-15T03:37:14;2.15;;;1.03;;
74788;SDS011;63313;48.258;12.518;2023-01-15T03:42:44;1.67;;;1.14;;
74788;SDS011;63313;48.258;12.518;2023-01-15T03:48:14;2.51;;;1.4;;
74788;SDS011;63313;48.258;12.518;2023-01-15T03:53:47;1.8699999999999999;;;1.28;;
74788;SDS011;63313;48.258;12.518;2023-01-15T03:59:16;1.83;;;1.34;;
74788;SDS011;63313;48.258;12.518;2023-01-15T04:04:44;1.8199999999999998;;;1.5;;
74788;SDS011;63313;48.258;12.518;2023-01-15T04:10:11;5.070000000000001;;;1.53;;
74788;SDS011;63313;48.258;12.518;2023-01-15T04:15:38;2.78;;;1.86;;
74788;SDS011;63313;48.258;12.518;2023-01-15T04:21:05;2.36;;;1.61;;
74788;SDS011;63313;48.258;12.518;2023-01-15T04:26:32;3.2699999999999996;;;1.3699999999999999;;
74788;SDS011;63313;48.258;12.518;2023-01-15T04:31:59;1.33;;;1.2100000000000002;;
74788;SDS011;63313;48.258;12.518;2023-01-15T04:37:27;1.44;;;1.2400000000000002;;
74788;SDS011;63313;48.258;12.518;2023-01-15T04:42:54;1.2200000000000002;;;1.15;;
74788;SDS011;63313;48.258;12.518;2023-01-15T04:48:21;1.4700000000000002;;;1.3900000000000001;;
74788;SDS011;63313;48.258;12.518;2023-01-15T04:53:48;1.67;;;1.5799999999999998;;
74788;SDS011;63313;48.258;12.518;2023-01-15T04:59:17;2.66;;;1.8099999999999998;;
74788;SDS011;63313;48.258;12.518;2023-01-15T05:04:44;1.6799999999999997;;;1.5699999999999998;;
74788;SDS011;63313;48.258;12.518;2023-01-15T05:10:11;4.319999999999999;;;1.56;;
74788;SDS011;63313;48.258;12.518;2023-01-15T05:15:38;2.9300000000000006;;;1.8699999999999999;;
74788;SDS011;63313;48.258;12.518;2023-01-15T05:21:05;3.2699999999999996;;;2.24;;
74788;SDS011;63313;48.258;12.518;2023-01-15T05:26:33;1.98;;;1.49;;
74788;SDS011;63313;48.258;12.518;2023-01-15T05:32:01;3.75;;;2.0300000000000002;;
74788;SDS011;63313;48.258;12.518;2023-01-15T05:37:28;6.1;;;2.31;;
74788;SDS011;63313;48.258;12.518;2023-01-15T05:42:55;4.74;;;2.3999999999999995;;
74788;SDS011;63313;48.258;12.518;2023-01-15T05:48:22;4.87;;;2.28;;
74788;SDS011;63313;48.258;12.518;2023-01-15T05:53:49;14.059999999999999;;;4.04;;
74788;SDS011;63313;48.258;12.518;2023-01-15T05:59:17;23.25;;;6.93;;
74788;SDS011;63313;48.258;12.518;2023-01-15T06:04:44;23.05;;;6.82;;
74788;SDS011;63313;48.258;12.518;2023-01-15T06:10:11;10.46;;;3.750000000000001;;
74788;SDS011;63313;48.258;12.518;2023-01-15T06:15:38;8.73;;;3.3400000000000007;;
74788;SDS011;63313;48.258;12.518;2023-01-15T06:21:06;4.529999999999999;;;2.1500000000000004;;
74788;SDS011;63313;48.258;12.518;2023-01-15T06:26:33;5.48;;;2.4899999999999998;;
74788;SDS011;63313;48.258;12.518;2023-01-15T06:32:01;4.069999999999999;;;2.39;;
74788;SDS011;63313;48.258;12.518;2023-01-15T06:37:28;6.029999999999999;;;2.94;;
74788;SDS011;63313;48.258;12.518;2023-01-15T06:42:56;7.159999999999999;;;2.65;;
74788;SDS011;63313;48.258;12.518;2023-01-15T06:48:24;11.400000000000002;;;4.950000000000001;;
74788;SDS011;63313;48.258;12.518;2023-01-15T06:53:51;22.27;;;6.42;;
74788;SDS011;63313;48.258;12.518;2023-01-15T06:59:18;10.3;;;3.7299999999999995;;
74788;SDS011;63313;48.258;12.518;2023-01-15T07:04:46;8.93;;;4.3;;
74788;SDS011;63313;48.258;12.518;2023-01-15T07:10:13;17.65;;;5.56;;
74788;SDS011;63313;48.258;12.518;2023-01-15T07:15:40;18.1;;;7.0;;
74788;SDS011;63313;48.258;12.518;2023-01-15T07:21:07;13.86;;;5.279999999999999;;
74788;SDS011;63313;48.258;12.518;2023-01-15T07:26:34;7.890000000000001;;;4.779999999999999;;
74788;SDS011;63313;48.258;12.518;2023-01-15T07:32:01;6.9300000000000015;;;3.7199999999999998;;
74788;SDS011;63313;48.258;12.518;2023-01-15T07:37:28;5.139999999999999;;;3.1599999999999993;;
74788;SDS011;63313;48.258;12.518;2023-01-15T07:42:55;5.33;;;3.34;;
74788;SDS011;63313;48.258;12.518;2023-01-15T07:48:22;7.580000000000001;;;3.2399999999999998;;
74788;SDS011;63313;48.258;12.518;2023-01-15T07:53:49;6.43;;;3.95;;
74788;SDS011;63313;48.258;12.518;2023-01-15T07:59:17;4.590000000000001;;;3.47;;
74788;SDS011;63313;48.258;12.518;2023-01-15T08:04:44;6.119999999999999;;;3.87;;
74788;SDS011;63313;48.258;12.518;2023-01-15T08:10:11;5.970000000000001;;;3.8899999999999997;;
74788;SDS011;63313;48.258;12.518;2023-01-15T08:15:39;6.3500000000000005;;;4.07;;
74788;SDS011;63313;48.258;12.518;2023-01-15T08:21:11;5.57;;;3.59;;
74788;SDS011;63313;48.258;12.518;2023-01-15T08:26:39;11.53;;;5.53;;
74788;SDS011;63313;48.258;12.518;2023-01-15T08:32:06;8.46;;;5.71;;
74788;SDS011;63313;48.258;12.518;2023-01-15T08:37:33;8.34;;;5.41;;
74788;SDS011;63313;48.258;12.518;2023-01-15T08:43:00;7.5;;;5.09;;
74788;SDS011;63313;48.258;12.518;2023-01-15T08:48:28;10.39;;;5.000000000000001;;
74788;SDS011;63313;48.258;12.518;2023-01-15T08:53:56;6.640000000000001;;;4.160000000000001;;
74788;SDS011;63313;48.258;12.518;2023-01-15T08:59:23;5.1899999999999995;;;4.220000000000001;;
74788;SDS011;63313;48.258;12.518;2023-01-15T09:04:50;6.9799999999999995;;;4.779999999999999;;
74788;SDS011;63313;48.258;12.518;2023-01-15T09:10:17;6.68;;;5.08;;
74788;SDS011;63313;48.258;12.518;2023-01-15T09:15:44;14.39;;;6.38;;
74788;SDS011;63313;48.258;12.518;2023-01-15T09:21:11;5.36;;;3.5200000000000005;;
74788;SDS011;63313;48.258;12.518;2023-01-15T09:26:38;4.05;;;3.3299999999999996;;
74788;SDS011;63313;48.258;12.518;2023-01-15T09:32:06;5.549999999999999;;;3.3600000000000003;;
74788;SDS011;63313;48.258;12.518;2023-01-15T09:37:33;5.96;;;3.69;;
74788;SDS011;63313;48.258;12.518;2023-01-15T09:43:01;13.0;;;6.44;;
74788;SDS011;63313;48.258;12.518;2023-01-15T09:48:32;10.700000000000001;;;5.99;;
74788;SDS011;63313;48.258;12.518;2023-01-15T09:54:10;7.7;;;4.58;;
74788;SDS011;63313;48.258;12.518;2023-01-15T09:59:40;5.62;;;2.8199999999999994;;
74788;SDS011;63313;48.258;12.518;2023-01-15T10:05:10;8.6;;;4.88;;
74788;SDS011;63313;48.258;12.518;2023-01-15T10:10:43;5.589999999999999;;;3.5200000000000005;;
74788;SDS011;63313;48.258;12.518;2023-01-15T10:16:12;9.129999999999999;;;5.24;;
74788;SDS011;63313;48.258;12.518;2023-01-15T10:21:44;8.92;;;5.299999999999999;;
74788;SDS011;63313;48.258;12.518;2023-01-15T10:27:17;22.35;;;11.13;;
74788;SDS011;63313;48.258;12.518;2023-01-15T10:32:46;14.85;;;9.13;;
74788;SDS011;63313;48.258;12.518;2023-01-15T10:38:16;20.23;;;11.809999999999999;;
74788;SDS011;63313;48.258;12.518;2023-01-15T10:43:47;15.969999999999999;;;8.79;;
74788;SDS011;63313;48.258;12.518;2023-01-15T10:49:16;10.99;;;6.109999999999999;;
74788;SDS011;63313;48.258;12.518;2023-01-15T10:54:44;10.06;;;6.75;;
74788;SDS011;63313;48.258;12.518;2023-01-15T11:00:13;0.45;;;0.45;;
74788;SDS011;63313;48.258;12.518;2023-01-15T11:05:40;0.77;;;0.36;;
74788;SDS011;63313;48.258;12.518;2023-01-15T11:11:13;0.39;;;0.39;;
74788;SDS011;63313;48.258;12.518;2023-01-15T11:16:42;0.56;;;0.55;;
74788;SDS011;63313;48.258;12.518;2023-01-15T11:22:10;0.4;;;0.4;;
74788;SDS011;63313;48.258;12.518;2023-01-15T11:27:38;0.5;;;0.5;;
74788;SDS011;63313;48.258;12.518;2023-01-15T11:33:15;0.6199999999999999;;;0.6199999999999999;;
74788;SDS011;63313;48.258;12.518;2023-01-15T11:38:46;0.57;;;0.57;;
74788;SDS011;63313;48.258;12.518;2023-01-15T11:44:13;0.5599999999999999;;;0.5599999999999999;;
74788;SDS011;63313;48.258;12.518;2023-01-15T11:49:48;0.51;;;0.4;;
74788;SDS011;63313;48.258;12.518;2023-01-15T11:55:16;0.5;;;0.5;;
74788;SDS011;63313;48.258;12.518;2023-01-15T12:00:44;0.42000000000000004;;;0.37;;
74788;SDS011;63313;48.258;12.518;2023-01-15T12:06:17;0.30999999999999994;;;0.30999999999999994;;
74788;SDS011;63313;48.258;12.518;2023-01-15T12:11:48;0.45999999999999996;;;0.45999999999999996;;
74788;SDS011;63313;48.258;12.518;2023-01-15T12:17:21;0.67;;;0.43;;
74788;SDS011;63313;48.258;12.518;2023-01-15T12:22:58;0.5599999999999999;;;0.48;;
74788;SDS011;63313;48.258;12.518;2023-01-15T12:28:28;1.26;;;0.7899999999999999;;
74788;SDS011;63313;48.258;12.518;2023-01-15T12:33:58;0.8800000000000001;;;0.8099999999999999;;
74788;SDS011;63313;48.258;12.518;2023-01-15T12:39:28;4.33;;;3.13;;
74788;SDS011;63313;48.258;12.518;2023-01-15T12:44:57;0.5499999999999999;;;0.5499999999999999;;
74788;SDS011;63313;48.258;12.518;2023-01-15T12:50:28;0.42000000000000004;;;0.42000000000000004;;
74788;SDS011;63313;48.258;12.518;2023-01-15T12:55:59;0.4800000000000001;;;0.4800000000000001;;
74788;SDS011;63313;48.258;12.518;2023-01-15T13:01:28;0.9400000000000001;;;0.43;;
74788;SDS011;63313;48.258;12.518;2023-01-15T13:06:57;3.7600000000000002;;;1.5699999999999998;;
74788;SDS011;63313;48.258;12.518;2023-01-15T13:12:26;0.45999999999999996;;;0.45999999999999996;;
74788;SDS011;63313;48.258;12.518;2023-01-15T13:17:57;4.959999999999999;;;1.04;;
74788;SDS011;63313;48.258;12.518;2023-01-15T13:23:31;0.51;;;0.51;;
74788;SDS011;63313;48.258;12.518;2023-01-15T13:29:05;0.74;;;0.5;;
74788;SDS011;63313;48.258;12.518;2023-01-15T13:34:36;0.51;;;0.51;;
74788;SDS011;63313;48.258;12.518;2023-01-15T13:40:05;1.1900000000000002;;;1.0;;
74788;SDS011;63313;48.258;12.518;2023-01-15T13:45:36;1.21;;;1.19;;
74788;SDS011;63313;48.258;12.518;2023-01-15T13:51:04;0.4;;;0.4;;
74788;SDS011;63313;48.258;12.518;2023-01-15T13:56:33;0.6299999999999999;;;0.6299999999999999;;
74788;SDS011;63313;48.258;12.518;2023-01-15T14:02:00;0.86;;;0.78;;
74788;SDS011;63313;48.258;12.518;2023-01-15T14:07:31;1.4400000000000002;;;1.3399999999999999;;
74788;SDS011;63313;48.258;12.518;2023-01-15T14:13:04;1.3800000000000001;;;1.15;;
74788;SDS011;63313;48.258;12.518;2023-01-15T14:18:39;1.02;;;0.8600000000000001;;
74788;SDS011;63313;48.258;12.518;2023-01-15T14:24:19;0.71;;;0.71;;
74788;SDS011;63313;48.258;12.518;2023-01-15T14:30:00;4.93;;;2.79;;
74788;SDS011;63313;48.258;12.518;2023-01-15T14:35:33;1.9900000000000002;;;1.2799999999999998;;
74788;SDS011;63313;48.258;12.518;2023-01-15T14:41:00;5.29;;;1.01;;
74788;SDS011;63313;48.258;12.518;2023-01-15T14:46:30;1.7;;;1.3199999999999998;;
74788;SDS011;63313;48.258;12.518;2023-01-15T14:51:57;3.1900000000000004;;;2.99;;
74788;SDS011;63313;48.258;12.518;2023-01-15T14:57:24;1.95;;;1.5200000000000002;;
74788;SDS011;63313;48.258;12.518;2023-01-15T15:02:52;1.24;;;0.9799999999999999;;
74788;SDS011;63313;48.258;12.518;2023-01-15T15:08:19;0.5899999999999999;;;0.5899999999999999;;
74788;SDS011;63313;48.258;12.518;2023-01-15T15:13:47;1.9899999999999998;;;1.1800000000000002;;
74788;SDS011;63313;48.258;12.518;2023-01-15T15:19:17;0.75;;;0.72;;
74788;SDS011;63313;48.258;12.518;2023-01-15T15:24:46;0.5899999999999999;;;0.5899999999999999;;
74788;SDS011;63313;48.258;12.518;2023-01-15T15:30:14;1.01;;;0.9200000000000002;;
74788;SDS011;63313;48.258;12.518;2023-01-15T15:35:41;2.0;;;0.73;;
74788;SDS011;63313;48.258;12.518;2023-01-15T15:41:10;0.7300000000000001;;;0.7300000000000001;;
74788;SDS011;63313;48.258;12.518;2023-01-15T15:46:37;0.63;;;0.63;;
74788;SDS011;63313;48.258;12.518;2023-01-15T15:52:11;0.9800000000000001;;;0.97;;
74788;SDS011;63313;48.258;12.518;2023-01-15T15:57:40;0.97;;;0.9100000000000001;;
74788;SDS011;63313;48.258;12.518;2023-01-15T16:03:15;1.2799999999999998;;;1.17;;
74788;SDS011;63313;48.258;12.518;2023-01-15T16:08:50;1.48;;;1.4300000000000002;;
74788;SDS011;63313;48.258;12.518;2023-01-15T16:14:17;1.0;;;0.97;;
74788;SDS011;63313;48.258;12.518;2023-01-15T16:19:45;1.5500000000000003;;;1.37;;
74788;SDS011;63313;48.258;12.518;2023-01-15T16:25:21;5.03;;;1.67;;
74788;SDS011;63313;48.258;12.518;2023-01-15T16:30:53;2.49;;;1.5299999999999998;;
74788;SDS011;63313;48.258;12.518;2023-01-15T16:36:21;2.65;;;1.65;;
74788;SDS011;63313;48.258;12.518;2023-01-15T16:41:48;0.6799999999999999;;;0.6799999999999999;;
74788;SDS011;63313;48.258;12.518;2023-01-15T16:47:22;1.01;;;0.9600000000000002;;
74788;SDS011;63313;48.258;12.518;2023-01-15T16:52:50;0.96;;;0.9400000000000001;;
74788;SDS011;63313;48.258;12.518;2023-01-15T16:58:18;1.6300000000000001;;;1.5;;
74788;SDS011;63313;48.258;12.518;2023-01-15T17:03:46;1.51;;;1.44;;
74788;SDS011;63313;48.258;12.518;2023-01-15T17:09:13;2.34;;;1.4700000000000002;;
74788;SDS011;63313;48.258;12.518;2023-01-15T17:14:40;1.1700000000000002;;;0.9800000000000001;;
74788;SDS011;63313;48.258;12.518;2023-01-15T17:20:08;6.4799999999999995;;;2.88;;
74788;SDS011;63313;48.258;12.518;2023-01-15T17:25:36;3.07;;;1.8200000000000003;;
74788;SDS011;63313;48.258;12.518;2023-01-15T17:31:03;1.86;;;1.64;;
74788;SDS011;63313;48.258;12.518;2023-01-15T17:36:30;1.0699999999999998;;;1.06;;
74788;SDS011;63313;48.258;12.518;2023-01-15T17:41:57;15.34;;;4.86;;
74788;SDS011;63313;48.258;12.518;2023-01-15T17:47:24;2.65;;;1.83;;
74788;SDS011;63313;48.258;12.518;2023-01-15T17:52:51;12.469999999999997;;;5.6899999999999995;;
74788;SDS011;63313;48.258;12.518;2023-01-15T17:58:18;2.18;;;2.0;;
74788;SDS011;63313;48.258;12.518;2023-01-15T18:03:46;2.8899999999999997;;;2.32;;
74788;SDS011;63313;48.258;12.518;2023-01-15T18:09:14;3.3;;;2.96;;
74788;SDS011;63313;48.258;12.518;2023-01-15T18:14:42;1.73;;;1.53;;
74788;SDS011;63313;48.258;12.518;2023-01-15T18:20:09;1.3499999999999999;;;1.1599999999999997;;
74788;SDS011;63313;48.258;12.518;2023-01-15T18:25:37;1.1800000000000002;;;0.8700000000000001;;
74788;SDS011;63313;48.258;12.518;2023-01-15T18:31:04;1.0;;;0.97;;
74788;SDS011;63313;48.258;12.518;2023-01-15T18:36:31;0.9700000000000001;;;0.9099999999999999;;
74788;SDS011;63313;48.258;12.518;2023-01-15T18:41:58;0.9;;;0.9;;
74788;SDS011;63313;48.258;12.518;2023-01-15T18:47:25;1.1300000000000001;;;0.95;;
74788;SDS011;63313;48.258;12.518;2023-01-15T18:52:53;4.970000000000001;;;1.64;;
74788;SDS011;63313;48.258;12.518;2023-01-15T18:58:20;2.23;;;1.08;;
74788;SDS011;63313;48.258;12.518;2023-01-15T19:03:47;1.4400000000000002;;;1.3400000000000003;;
74788;SDS011;63313;48.258;12.518;2023-01-15T19:09:14;1.8199999999999998;;;1.14;;
74788;SDS011;63313;48.258;12.518;2023-01-15T19:14:41;1.98;;;1.09;;
74788;SDS011;63313;48.258;12.518;2023-01-15T19:20:08;2.0;;;1.1599999999999997;;
74788;SDS011;63313;48.258;12.518;2023-01-15T19:25:36;1.77;;;1.3200000000000003;;
74788;SDS011;63313;48.258;12.518;2023-01-15T19:31:05;1.67;;;1.2;;
74788;SDS011;63313;48.258;12.518;2023-01-15T19:36:32;2.52;;;1.9;;
74788;SDS011;63313;48.258;12.518;2023-01-15T19:41:59;1.5100000000000002;;;1.3599999999999999;;
74788;SDS011;63313;48.258;12.518;2023-01-15T19:47:27;3.47;;;1.65;;
74788;SDS011;63313;48.258;12.518;2023-01-15T19:52:55;2.2;;;1.56;;
74788;SDS011;63313;48.258;12.518;2023-01-15T19:58:22;6.34;;;2.0100000000000002;;
74788;SDS011;63313;48.258;12.518;2023-01-15T20:03:49;2.42;;;1.48;;
74788;SDS011;63313;48.258;12.518;2023-01-15T20:09:16;4.44;;;1.8800000000000003;;
74788;SDS011;63313;48.258;12.518;2023-01-15T20:14:43;1.65;;;1.33;;
74788;SDS011;63313;48.258;12.518;2023-01-15T20:20:10;2.81;;;1.36;;
74788;SDS011;63313;48.258;12.518;2023-01-15T20:25:37;3.04;;;1.4200000000000002;;
74788;SDS011;63313;48.258;12.518;2023-01-15T20:31:04;3.25;;;1.72;;
74788;SDS011;63313;48.258;12.518;2023-01-15T20:36:32;2.6599999999999997;;;1.55;;
74788;SDS011;63313;48.258;12.518;2023-01-15T20:41:59;2.0000000000000004;;;1.6;;
74788;SDS011;63313;48.258;12.518;2023-01-15T20:47:26;2.05;;;1.65;;
74788;SDS011;63313;48.258;12.518;2023-01-15T20:52:53;3.16;;;1.77;;
74788;SDS011;63313;48.258;12.518;2023-01-15T20:58:20;2.2199999999999998;;;1.64;;
74788;SDS011;63313;48.258;12.518;2023-01-15T21:03:47;6.02;;;1.9300000000000002;;
74788;SDS011;63313;48.258;12.518;2023-01-15T21:09:14;5.58;;;1.8900000000000001;;
74788;SDS011;63313;48.258;12.518;2023-01-15T21:14:41;4.2299999999999995;;;1.44;;
74788;SDS011;63313;48.258;12.518;2023-01-15T21:20:09;1.4100000000000001;;;1.3000000000000003;;
74788;SDS011;63313;48.258;12.518;2023-01-15T21:25:37;1.9700000000000002;;;1.1800000000000002;;
74788;SDS011;63313;48.258;12.518;2023-01-15T21:31:05;1.51;;;1.2799999999999998;;
74788;SDS011;63313;48.258;12.518;2023-01-15T21:36:32;3.04;;;1.8;;
74788;SDS011;63313;48.258;12.518;2023-01-15T21:41:59;1.4899999999999998;;;1.1799999999999997;;
74788;SDS011;63313;48.258;12.518;2023-01-15T21:47:26;3.2599999999999993;;;1.9700000000000002;;
74788;SDS011;63313;48.258;12.518;2023-01-15T21:52:53;3.9499999999999993;;;2.63;;
74788;SDS011;63313;48.258;12.518;2023-01-15T21:58:20;3.54;;;1.5;;
74788;SDS011;63313;48.258;12.518;2023-01-15T22:03:47;1.56;;;1.45;;
74788;SDS011;63313;48.258;12.518;2023-01-15T22:09:15;2.94;;;1.45;;
74788;SDS011;63313;48.258;12.518;2023-01-15T22:14:42;1.9600000000000002;;;1.5199999999999998;;
74788;SDS011;63313;48.258;12.518;2023-01-15T22:20:09;4.109999999999999;;;1.9299999999999997;;
74788;SDS011;63313;48.258;12.518;2023-01-15T22:25:36;6.26;;;4.130000000000001;;
74788;SDS011;63313;48.258;12.518;2023-01-15T22:31:04;4.4399999999999995;;;2.04;;
74788;SDS011;63313;48.258;12.518;2023-01-15T22:36:31;4.049999999999999;;;1.78;;
74788;SDS011;63313;48.258;12.518;2023-01-15T22:41:58;1.1699999999999997;;;1.1099999999999999;;
74788;SDS011;63313;48.258;12.518;2023-01-15T22:47:25;2.1;;;1.1999999999999997;;
74788;SDS011;63313;48.258;12.518;2023-01-15T22:52:52;3.91;;;1.29;;
74788;SDS011;63313;48.258;12.518;2023-01-15T22:58:19;2.4;;;1.0;;
74788;SDS011;63313;48.258;12.518;2023-01-15T23:03:47;1.2200000000000002;;;0.9400000000000001;;
74788;SDS011;63313;48.258;12.518;2023-01-15T23:09:14;6.590000000000001;;;1.2400000000000002;;
74788;SDS011;63313;48.258;12.518;2023-01-15T23:14:41;2.04;;;1.2;;
74788;SDS011;63313;48.258;12.518;2023-01-15T23:20:09;4.030000000000001;;;1.4500000000000002;;
74788;SDS011;63313;48.258;12.518;2023-01-15T23:25:36;5.119999999999999;;;2.81;;
74788;SDS011;63313;48.258;12.518;2023-01-15T23:31:03;4.16;;;2.6599999999999997;;
74788;SDS011;63313;48.258;12.518;2023-01-15T23:36:30;7.159999999999999;;;3.08;;
74788;SDS011;63313;48.258;12.518;2023-01-15T23:41:57;3.31;;;1.67;;
74788;SDS011;63313;48.258;12.518;2023-01-15T23:47:24;6.05;;;1.83;;
74788;SDS011;63313;48.258;12.518;2023-01-15T23:52:51;2.2299999999999995;;;1.23;;
74788;SDS011;63313;48.258;12.518;2023-01-15T23:58:18;2.33;;;1.22;;
